Time;durP1;ratioP1;P1;durP2;ratioP2;P2;SDS_P1;SDS_P2;PMS_P1;PMS_P2;Temp;Humidity;BMP_temperature;BMP_pressure;BME280_temperature;BME280_humidity;BME280_pressure;Samples;Min_cycle;Max_cycle;Signal;HPM_P1;HPM_P2
2022/01/06 00:03:43;;;;;;;20.65;7.47;;;;;;;1.41;94.94;101347.94;10404428;28;20354;-75
2022/01/06 00:08:43;;;;;;;37.30;12.60;;;;;;;1.26;94.40;101349.09;10355190;28;20489;-75
2022/01/06 00:24:03;;;;;;;17.40;6.32;;;;;;;0.70;94.04;101374.84;10371692;28;20033;-76
2022/01/06 00:29:04;;;;;;;16.27;6.68;;;;;;;0.76;94.34;101370.25;10356775;28;20030;-75
2022/01/06 00:34:08;;;;;;;19.73;6.40;;;;;;;0.66;94.42;101383.03;10374164;28;20076;-75
2022/01/06 00:39:10;;;;;;;26.50;8.32;;;;;;;0.53;93.83;101392.16;10371537;28;20056;-76
2022/01/06 00:44:10;;;;;;;33.30;7.40;;;;;;;0.51;94.35;101387.63;10371329;28;20046;-75
2022/01/06 00:49:11;;;;;;;21.08;5.97;;;;;;;0.49;93.65;101389.16;10354747;28;20080;-75
2022/01/06 00:54:11;;;;;;;18.88;7.68;;;;;;;0.39;93.99;101393.41;10372143;28;20037;-76
2022/01/06 00:59:12;;;;;;;23.45;9.13;;;;;;;0.33;93.97;101404.78;10371921;28;20057;-75
2022/01/06 01:04:12;;;;;;;25.63;7.43;;;;;;;0.28;93.99;101406.91;10372044;28;20092;-75
2022/01/06 01:09:13;;;;;;;23.30;6.72;;;;;;;0.13;94.39;101411.47;10370742;28;20100;-75
2022/01/06 01:14:18;;;;;;;26.77;9.63;;;;;;;0.02;94.42;101419.78;10369637;28;20068;-76
2022/01/06 01:19:19;;;;;;;22.67;8.68;;;;;;;-0.10;93.74;101419.50;10371510;28;20176;-75
2022/01/06 01:24:20;;;;;;;26.40;7.53;;;;;;;-0.21;94.40;101414.19;10372184;28;20080;-76
2022/01/06 01:29:22;;;;;;;21.85;7.40;;;;;;;-0.37;93.75;101422.03;10369491;28;20373;-76
2022/01/06 01:34:25;;;;;;;23.42;8.02;;;;;;;-0.40;94.28;101421.72;10354915;28;20069;-75
2022/01/06 01:39:26;;;;;;;15.07;5.60;;;;;;;-0.52;94.07;101426.56;10372560;28;20504;-75
2022/01/06 01:44:32;;;;;;;19.08;7.82;;;;;;;-0.58;93.92;101428.50;10351754;28;20037;-75
2022/01/06 01:49:48;;;;;;;22.70;7.30;;;;;;;-0.63;94.25;101437.41;10370859;28;20117;-75
2022/01/06 01:54:48;;;;;;;31.85;9.85;;;;;;;-0.54;93.96;101438.34;10370756;28;20026;-75
2022/01/06 01:59:49;;;;;;;27.63;9.60;;;;;;;-0.60;94.42;101445.44;10369911;28;20061;-76
2022/01/06 02:04:52;;;;;;;25.35;8.00;;;;;;;-0.71;94.60;101456.28;10369978;28;20053;-76
2022/01/06 02:09:53;;;;;;;20.63;6.82;;;;;;;-0.79;94.31;101452.91;10353919;28;20022;-75
2022/01/06 02:14:53;;;;;;;30.45;9.43;;;;;;;-0.76;94.56;101460.94;10372470;28;20033;-75
2022/01/06 02:19:58;;;;;;;21.23;8.25;;;;;;;-0.77;94.78;101461.69;10378868;28;20096;-76
2022/01/06 02:25:11;;;;;;;39.05;11.50;;;;;;;-0.83;94.71;101472.28;10375584;28;20037;-75
2022/01/06 02:30:14;;;;;;;23.85;7.68;;;;;;;-0.99;94.53;101464.63;10377266;28;20021;-76
2022/01/06 02:35:23;;;;;;;26.45;10.50;;;;;;;-1.03;94.95;101475.34;10376341;28;20552;-76
2022/01/06 02:40:24;;;;;;;30.38;9.98;;;;;;;-1.10;94.56;101465.19;10378304;28;20022;-75
2022/01/06 02:45:29;;;;;;;18.02;7.43;;;;;;;-1.16;94.97;101472.25;10376575;28;20496;-74
2022/01/06 02:50:29;;;;;;;34.60;9.60;;;;;;;-1.21;94.44;101471.78;10376811;28;20085;-75
2022/01/06 02:55:33;;;;;;;28.40;12.85;;;;;;;-1.29;95.20;101470.06;10376682;28;20033;-75
2022/01/06 03:00:40;;;;;;;18.45;8.30;;;;;;;-1.38;94.88;101467.44;10374992;28;20077;-75
2022/01/06 03:05:40;;;;;;;23.05;8.55;;;;;;;-1.46;94.42;101478.56;10375160;28;20053;-75
2022/01/06 03:10:44;;;;;;;21.20;7.15;;;;;;;-1.54;94.47;101476.09;10374470;28;20053;-75
2022/01/06 03:15:44;;;;;;;18.33;9.52;;;;;;;-1.65;94.35;101482.66;10373876;28;20116;-76
2022/01/06 03:20:45;;;;;;;34.70;9.60;;;;;;;-1.73;94.76;101491.22;10357786;28;20129;-75
2022/01/06 03:25:45;;;;;;;30.58;8.73;;;;;;;-1.85;94.64;101487.34;10372660;28;20120;-75
2022/01/06 03:30:46;;;;;;;30.83;8.57;;;;;;;-1.95;94.37;101491.47;10374114;28;20054;-75
2022/01/06 03:35:47;;;;;;;33.88;9.93;;;;;;;-2.09;94.94;101494.22;10373182;28;20164;-76
2022/01/06 03:40:47;;;;;;;24.40;8.63;;;;;;;-2.13;94.62;101505.78;10374063;28;20062;-75
2022/01/06 03:45:47;;;;;;;23.23;9.77;;;;;;;-2.13;94.54;101512.56;10373507;28;20042;-75
2022/01/06 03:50:48;;;;;;;24.30;8.88;;;;;;;-2.23;94.88;101520.91;10372804;28;20036;-75
2022/01/06 03:55:48;;;;;;;29.55;9.93;;;;;;;-2.19;94.94;101523.06;10372628;28;20087;-75
2022/01/06 04:00:49;;;;;;;53.10;13.55;;;;;;;-2.29;94.92;101533.97;10372817;28;20061;-75
2022/01/06 04:05:49;;;;;;;29.67;9.80;;;;;;;-2.29;94.34;101528.84;10373903;28;20073;-75
2022/01/06 04:10:50;;;;;;;31.13;9.57;;;;;;;-2.38;95.20;101533.88;10357463;28;20124;-75
2022/01/06 04:15:50;;;;;;;18.17;8.88;;;;;;;-2.42;94.52;101531.72;10371761;28;20112;-75
2022/01/06 04:20:51;;;;;;;24.67;7.78;;;;;;;-2.44;94.87;101542.56;10372053;28;20505;-75
2022/01/06 04:25:51;;;;;;;22.80;8.85;;;;;;;-2.40;94.74;101539.59;10373099;28;20064;-75
2022/01/06 04:30:52;;;;;;;33.45;10.95;;;;;;;-2.36;95.43;101550.31;10372414;28;20069;-75
2022/01/06 04:35:52;;;;;;;41.78;13.55;;;;;;;-2.37;94.63;101555.31;10354172;28;20515;-75
2022/01/06 04:40:53;;;;;;;32.33;9.13;;;;;;;-2.46;94.45;101559.41;10373532;28;20052;-74
2022/01/06 04:45:53;;;;;;;40.60;10.55;;;;;;;-2.45;95.03;101561.25;10371141;28;20569;-75
2022/01/06 04:50:54;;;;;;;26.42;9.70;;;;;;;-2.47;95.03;101576.44;10370084;28;20022;-75
2022/01/06 04:55:56;;;;;;;31.45;11.00;;;;;;;-2.30;94.58;101582.53;10371284;28;20072;-75
2022/01/06 05:01:03;;;;;;;24.25;8.10;;;;;;;-2.26;95.45;101583.03;10370635;28;20033;-75
2022/01/06 05:06:03;;;;;;;25.92;10.38;;;;;;;-2.07;95.29;101582.50;10370306;28;20485;-75
2022/01/06 05:11:04;;;;;;;27.95;9.18;;;;;;;-2.11;95.30;101585.47;10369377;28;20017;-75
2022/01/06 05:16:04;;;;;;;30.55;10.52;;;;;;;-2.26;95.35;101595.88;10388354;28;20065;-76
2022/01/06 05:21:06;;;;;;;27.88;10.77;;;;;;;-2.22;95.05;101602.22;10369581;28;20034;-75
2022/01/06 05:26:06;;;;;;;34.57;11.10;;;;;;;-2.18;94.98;101601.81;10370159;28;20473;-75
2022/01/06 05:31:07;;;;;;;51.47;11.05;;;;;;;-2.13;95.38;101608.38;10370001;28;20032;-75
2022/01/06 05:36:07;;;;;;;33.53;14.15;;;;;;;-2.30;95.32;101605.59;10370924;28;20141;-75
2022/01/06 05:41:08;;;;;;;29.08;13.00;;;;;;;-2.35;95.61;101607.66;10369995;28;20038;-75
2022/01/06 05:46:08;;;;;;;28.63;10.75;;;;;;;-2.31;95.44;101622.66;10369754;28;20125;-76
2022/01/06 05:51:09;;;;;;;36.35;12.38;;;;;;;-2.27;95.10;101623.88;10373473;28;20116;-76
2022/01/06 05:56:09;;;;;;;42.00;12.75;;;;;;;-2.33;95.54;101621.56;10377562;28;20041;-75
2022/01/06 06:01:10;;;;;;;39.13;14.73;;;;;;;-2.40;95.49;101627.66;10354614;28;20120;-77
2022/01/06 06:06:11;;;;;;;36.28;15.05;;;;;;;-2.46;94.86;101626.97;10334345;28;20089;-76
2022/01/06 06:11:13;;;;;;;32.67;14.38;;;;;;;-2.49;94.98;101634.31;10375448;28;20074;-76
2022/01/06 06:16:13;;;;;;;41.22;17.27;;;;;;;-2.47;95.17;101639.63;10375523;28;20034;-76
2022/01/06 06:21:14;;;;;;;51.03;15.80;;;;;;;-2.47;95.07;101640.53;10373027;28;20084;-76
2022/01/06 06:26:14;;;;;;;37.58;16.65;;;;;;;-2.61;95.54;101636.44;10375946;28;20437;-79
2022/01/06 06:31:14;;;;;;;42.13;18.55;;;;;;;-2.73;95.56;101645.28;10358559;28;20122;-78
2022/01/06 06:36:15;;;;;;;44.30;19.40;;;;;;;-2.83;95.49;101651.00;10375310;28;20050;-78
2022/01/06 06:41:16;;;;;;;57.83;22.47;;;;;;;-2.78;95.40;101657.56;10374031;28;20042;-78
2022/01/06 06:46:16;;;;;;;47.45;22.05;;;;;;;-2.83;94.72;101668.94;10373173;28;20026;-79
2022/01/06 06:51:16;;;;;;;55.40;23.43;;;;;;;-2.90;94.90;101676.66;10372613;28;21758;-78
2022/01/06 06:56:17;;;;;;;44.60;23.53;;;;;;;-2.90;95.01;101679.22;10373093;28;20053;-78
2022/01/06 07:01:20;;;;;;;58.43;27.70;;;;;;;-2.89;95.42;101684.53;10370686;28;20084;-77
2022/01/06 07:06:22;;;;;;;59.15;25.83;;;;;;;-2.89;95.75;101684.53;10355067;28;20556;-78
2022/01/06 07:11:23;;;;;;;61.55;26.63;;;;;;;-2.96;94.96;101689.69;10373500;28;20094;-78
2022/01/06 07:16:23;;;;;;;56.05;28.20;;;;;;;-3.01;95.04;101704.53;10368892;28;20029;-78
2022/01/06 07:21:24;;;;;;;53.83;28.77;;;;;;;-2.99;95.42;101705.63;10371253;28;20061;-78
2022/01/06 07:26:24;;;;;;;51.27;26.70;;;;;;;-2.92;95.05;101720.06;10356332;28;20132;-78
2022/01/06 07:31:25;;;;;;;62.85;32.22;;;;;;;-2.84;95.61;101726.06;10371544;28;20073;-78
2022/01/06 07:36:25;;;;;;;93.00;33.30;;;;;;;-2.82;95.33;101733.19;10370958;28;20124;-78
2022/01/06 07:41:26;;;;;;;71.30;31.80;;;;;;;-2.84;95.30;101752.59;10381680;28;20029;-77
2022/01/06 07:46:26;;;;;;;58.53;31.33;;;;;;;-2.89;95.60;101750.22;10389557;28;20060;-77
2022/01/06 07:51:31;;;;;;;86.13;36.90;;;;;;;-2.85;95.86;101749.84;10373767;28;20043;-78
2022/01/06 07:56:32;;;;;;;73.40;36.28;;;;;;;-2.84;95.01;101759.34;10368534;28;20030;-76
2022/01/06 08:01:35;;;;;;;56.67;34.27;;;;;;;-2.84;95.47;101760.28;10365432;28;20030;-76
2022/01/06 08:06:35;;;;;;;67.85;35.55;;;;;;;-2.75;95.23;101762.09;10369368;28;20033;-77
2022/01/06 08:11:36;;;;;;;90.70;40.60;;;;;;;-2.66;95.55;101764.03;10364082;28;20072;-77
2022/01/06 08:16:36;;;;;;;84.17;40.37;;;;;;;-2.59;95.27;101767.31;10370036;28;20021;-76
2022/01/06 08:21:37;;;;;;;80.63;43.92;;;;;;;-2.49;95.22;101777.88;10373075;28;20487;-76
2022/01/06 08:26:37;;;;;;;80.32;40.72;;;;;;;-2.34;95.25;101770.09;10385409;28;20052;-76
2022/01/06 08:31:38;;;;;;;95.20;46.00;;;;;;;-2.30;95.53;101780.91;10374603;28;20025;-77
2022/01/06 08:36:38;;;;;;;103.15;44.72;;;;;;;-2.25;95.71;101778.84;10367451;28;20070;-77
2022/01/06 08:41:40;;;;;;;98.57;49.13;;;;;;;-2.16;95.36;101786.69;10368426;28;20145;-77
2022/01/06 08:46:41;;;;;;;89.30;44.47;;;;;;;-2.10;95.86;101789.94;10340796;28;20030;-77
2022/01/06 08:51:42;;;;;;;101.57;50.40;;;;;;;-1.97;95.69;101788.03;10358552;28;20045;-76
2022/01/06 08:56:42;;;;;;;90.17;46.87;;;;;;;-1.86;95.76;101790.88;10372313;28;20068;-77
2022/01/06 09:01:43;;;;;;;84.30;42.33;;;;;;;-1.78;95.68;101793.56;10353694;28;20604;-77
2022/01/06 09:06:43;;;;;;;74.88;36.65;;;;;;;-1.67;95.63;101804.09;10362379;28;20080;-76
2022/01/06 09:11:44;;;;;;;88.32;40.83;;;;;;;-1.61;95.98;101809.94;10356991;28;20060;-77
2022/01/06 09:16:44;;;;;;;72.00;34.70;;;;;;;-1.55;95.29;101813.19;10373442;28;20360;-78
2022/01/06 09:21:45;;;;;;;62.90;34.92;;;;;;;-1.36;96.12;101815.22;10371270;28;20038;-77
2022/01/06 09:26:49;;;;;;;80.20;36.75;;;;;;;-1.21;95.45;101819.47;10383298;28;20026;-77
2022/01/06 09:31:49;;;;;;;86.88;43.70;;;;;;;-1.05;95.28;101823.72;10371602;28;20072;-78
2022/01/06 09:36:50;;;;;;;84.07;47.38;;;;;;;-0.82;95.29;101826.25;10379050;28;20499;-80
2022/01/06 09:41:50;;;;;;;82.00;46.83;;;;;;;-0.55;95.69;101822.28;10388507;28;20054;-79
2022/01/06 09:46:51;;;;;;;97.28;45.50;;;;;;;-0.18;95.50;101827.84;10371972;28;20116;-78
2022/01/06 09:51:51;;;;;;;95.20;51.70;;;;;;;0.35;95.58;101833.34;10376478;28;20065;-78
2022/01/06 09:56:52;;;;;;;97.65;44.28;;;;;;;1.91;95.44;101830.03;10383063;28;20128;-77
2022/01/06 10:01:53;;;;;;;71.25;38.67;;;;;;;3.17;94.53;101829.84;10353424;28;20077;-77
2022/01/06 10:07:00;;;;;;;60.03;35.28;;;;;;;3.55;93.35;101831.59;10357193;28;20460;-79
2022/01/06 10:12:10;;;;;;;44.72;22.15;;;;;;;4.87;88.31;101829.28;10372592;28;20069;-77
2022/01/06 10:17:13;;;;;;;23.55;16.60;;;;;;;5.78;78.52;101834.31;10389891;28;20029;-78
2022/01/06 10:22:16;;;;;;;41.10;16.13;;;;;;;4.81;79.13;101834.84;10373630;28;20112;-76
2022/01/06 10:27:20;;;;;;;35.22;13.63;;;;;;;4.25;79.14;101840.38;10369942;28;20044;-77
2022/01/06 10:32:23;;;;;;;27.00;15.18;;;;;;;4.18;80.53;101830.25;10347364;28;20109;-78
2022/01/06 10:37:29;;;;;;;30.17;14.50;;;;;;;4.11;80.42;101834.00;10372929;28;20034;-77
2022/01/06 10:42:31;;;;;;;22.48;11.88;;;;;;;4.85;78.19;101816.19;10373705;28;20077;-77
2022/01/06 10:47:33;;;;;;;23.92;12.60;;;;;;;5.32;77.04;101814.91;10360871;28;20022;-77
2022/01/06 10:52:33;;;;;;;21.17;11.85;;;;;;;6.01;75.38;101811.94;10361581;28;20127;-78
2022/01/06 10:57:34;;;;;;;19.00;9.85;;;;;;;8.13;68.81;101795.03;10370079;28;20396;-76
2022/01/06 11:02:34;;;;;;;26.23;10.88;;;;;;;9.18;63.15;101791.03;10373011;28;20022;-77
2022/01/06 11:07:35;;;;;;;22.42;9.20;;;;;;;8.44;64.08;101786.81;10368293;28;20026;-77
2022/01/06 11:12:36;;;;;;;17.98;8.88;;;;;;;7.94;66.65;101789.38;10375671;28;20057;-77
2022/01/06 11:17:36;;;;;;;17.52;9.38;;;;;;;7.60;67.02;101789.50;10369286;28;20056;-76
2022/01/06 11:22:46;;;;;;;16.13;8.93;;;;;;;7.48;68.79;101793.78;10365663;28;20026;-77
2022/01/06 11:27:47;;;;;;;20.88;8.07;;;;;;;7.82;67.29;101798.03;10339631;28;20121;-77
2022/01/06 11:32:47;;;;;;;18.00;9.05;;;;;;;8.72;64.07;101788.78;10352106;28;20095;-77
2022/01/06 11:37:49;;;;;;;20.10;8.13;;;;;;;8.69;63.42;101793.81;10361104;28;20077;-77
2022/01/06 11:42:54;;;;;;;17.65;7.32;;;;;;;8.12;65.29;101795.84;10358550;28;20025;-77
2022/01/06 11:48:02;;;;;;;18.65;8.65;;;;;;;8.41;64.82;101790.09;10370193;28;20069;-77
2022/01/06 11:53:04;;;;;;;14.15;7.65;;;;;;;8.42;65.10;101786.69;10372157;28;20029;-79
2022/01/06 11:58:18;;;;;;;26.87;9.60;;;;;;;8.76;62.38;101785.59;10363525;28;20040;-78
2022/01/06 12:03:19;;;;;;;16.77;6.40;;;;;;;8.36;62.67;101789.78;10368408;28;20030;-77
2022/01/06 12:08:36;;;;;;;16.92;7.55;;;;;;;7.66;66.81;101798.56;10354070;28;20412;-78
2022/01/06 12:13:46;;;;;;;16.50;7.43;;;;;;;7.37;66.61;101797.28;10341160;28;20362;-78
2022/01/06 12:18:47;;;;;;;18.33;7.47;;;;;;;7.90;65.70;101800.38;10365540;28;20436;-77
2022/01/06 12:23:48;;;;;;;18.45;9.10;;;;;;;8.93;63.72;101794.59;10365233;28;20058;-75
2022/01/06 12:28:49;;;;;;;20.33;7.73;;;;;;;8.06;65.21;101789.38;10351188;28;20034;-78
2022/01/06 12:33:50;;;;;;;18.58;6.88;;;;;;;7.76;67.10;101794.16;10365088;28;20592;-76
2022/01/06 12:38:51;;;;;;;14.82;7.07;;;;;;;8.53;64.68;101787.50;10349386;28;20034;-76
2022/01/06 12:43:52;;;;;;;16.63;7.38;;;;;;;8.03;66.17;101777.81;10353344;28;20112;-80
2022/01/06 12:48:53;;;;;;;19.50;9.48;;;;;;;8.81;64.03;101771.16;10369861;28;20037;-79
2022/01/06 12:54:04;;;;;;;16.45;8.73;;;;;;;7.32;68.18;101773.53;10358081;28;20039;-77
2022/01/06 12:59:24;;;;;;;18.70;7.50;;;;;;;7.96;67.20;101752.09;10368217;28;20033;-78
2022/01/06 13:04:29;;;;;;;14.00;5.80;;;;;;;8.07;65.76;101753.78;10371323;28;20041;-77
2022/01/06 13:09:36;;;;;;;22.38;6.50;;;;;;;8.92;61.91;101751.94;10336316;28;20030;-75
2022/01/06 13:14:48;;;;;;;25.83;8.13;;;;;;;9.67;59.64;101747.28;10355449;28;20536;-72
2022/01/06 13:20:09;;;;;;;21.83;7.57;;;;;;;8.70;62.71;101743.41;10391269;28;20079;-74
2022/01/06 13:25:19;;;;;;;12.77;6.93;;;;;;;7.60;67.09;101745.22;10378689;28;20473;-75
2022/01/06 13:30:39;;;;;;;21.40;8.40;;;;;;;6.73;68.13;101745.66;10377226;28;20029;-76
2022/01/06 13:35:56;;;;;;;25.17;8.70;;;;;;;6.56;69.67;101745.25;10373495;28;20052;-77
2022/01/06 13:40:58;;;;;;;19.10;8.82;;;;;;;6.62;69.40;101742.19;10377177;28;20026;-77
2022/01/06 13:46:09;;;;;;;;;;;;;;;6.90;68.70;101731.31;10353362;28;20022;-76
2022/01/06 13:51:12;;;;;;;15.07;7.70;;;;;;;7.01;68.50;101730.44;10361048;28;20035;-76
2022/01/06 13:56:21;;;;;;;22.08;7.32;;;;;;;7.72;66.18;101732.19;10350316;28;20030;-77
2022/01/06 14:01:27;;;;;;;19.92;7.97;;;;;;;8.18;63.99;101731.97;10365029;28;20053;-79
2022/01/06 14:06:27;;;;;;;30.77;6.32;;;;;;;6.90;67.17;101728.72;10363092;28;20600;-79
2022/01/06 14:11:28;;;;;;;24.88;5.78;;;;;;;6.81;67.32;101728.00;10368878;28;20037;-79
2022/01/06 14:16:28;;;;;;;16.15;5.88;;;;;;;6.56;68.40;101737.44;10372633;28;20108;-78
2022/01/06 14:21:29;;;;;;;21.10;6.95;;;;;;;6.16;69.48;101739.50;10380477;28;20455;-80
2022/01/06 14:26:29;;;;;;;37.55;7.53;;;;;;;5.31;71.72;101741.31;10381537;28;20137;-80
2022/01/06 14:31:30;;;;;;;17.35;7.20;;;;;;;4.14;75.37;101750.41;10395416;28;20477;-79
2022/01/06 14:36:31;;;;;;;19.70;8.23;;;;;;;3.41;77.13;101744.91;10386327;28;20102;-78
2022/01/06 14:41:31;;;;;;;28.95;7.75;;;;;;;2.93;79.64;101745.75;10396922;28;20041;-79
2022/01/06 14:46:32;;;;;;;14.57;6.55;;;;;;;2.64;80.42;101757.75;10382823;28;20133;-79
2022/01/06 14:51:33;;;;;;;14.65;8.13;;;;;;;2.31;81.58;101755.50;10397799;28;20061;-79
2022/01/06 14:56:34;;;;;;;20.13;6.35;;;;;;;2.24;83.13;101763.44;10416807;28;20029;-78
2022/01/06 15:01:36;;;;;;;11.07;6.07;;;;;;;2.07;83.94;101757.56;10363360;28;20481;-78
2022/01/06 15:06:37;;;;;;;20.23;6.65;;;;;;;1.86;83.90;101757.31;10357252;28;20026;-79
2022/01/06 15:11:38;;;;;;;20.05;10.05;;;;;;;1.72;84.75;101748.19;10393200;28;20036;-79
2022/01/06 15:16:39;;;;;;;19.73;7.82;;;;;;;1.64;85.55;101755.97;10410157;28;20045;-82
2022/01/06 15:21:39;;;;;;;16.27;8.18;;;;;;;1.45;86.20;101743.84;10413556;28;20447;-78
2022/01/06 15:26:40;;;;;;;15.95;7.13;;;;;;;1.26;85.97;101741.09;10413247;28;20069;-82
2022/01/06 15:31:40;;;;;;;20.95;8.73;;;;;;;1.06;86.83;101749.44;10414123;28;20561;-82
2022/01/06 15:36:41;;;;;;;22.25;10.52;;;;;;;0.94;87.19;101746.53;10413265;28;20080;-79
2022/01/06 15:41:41;;;;;;;21.80;7.93;;;;;;;0.81;87.81;101740.16;10385123;28;20436;-80
2022/01/06 15:46:42;;;;;;;18.58;7.43;;;;;;;0.80;88.57;101743.47;10370002;28;20101;-78
2022/01/06 15:51:42;;;;;;;33.10;9.45;;;;;;;0.85;89.09;101752.59;10365890;28;20041;-81
2022/01/06 15:56:46;;;;;;;17.98;7.65;;;;;;;0.96;89.40;101750.19;10373358;28;20124;-80
2022/01/06 16:07:00;;;;;;;21.98;11.85;;;;;;;1.53;89.30;101750.66;10371549;28;20503;-81
2022/01/06 16:12:00;;;;;;;27.75;10.82;;;;;;;1.43;88.40;101761.72;10340032;28;20029;-82
2022/01/06 16:17:01;;;;;;;24.58;12.18;;;;;;;1.54;87.67;101759.31;10380049;28;20442;-79
2022/01/06 16:22:05;;;;;;;23.65;11.65;;;;;;;1.28;87.25;101752.47;10343340;28;20490;-79
2022/01/06 16:27:07;;;;;;;43.53;17.48;;;;;;;1.13;88.14;101757.94;10366292;28;20120;-79
2022/01/06 16:32:25;;;;;;;38.85;18.38;;;;;;;0.88;87.87;101755.47;10395172;28;20026;-77
2022/01/06 16:37:33;;;;;;;39.72;19.35;;;;;;;0.68;89.22;101763.78;10357878;28;20045;-78
2022/01/06 16:42:35;;;;;;;40.38;18.10;;;;;;;0.49;89.30;101767.81;10372216;28;20061;-78
2022/01/06 16:47:35;;;;;;;43.70;15.65;;;;;;;0.23;89.29;101761.78;10373307;28;20053;-78
2022/01/06 16:52:37;;;;;;;46.17;23.48;;;;;;;0.31;90.60;101761.66;10352380;28;20131;-78
2022/01/06 16:57:37;;;;;;;31.77;18.95;;;;;;;0.38;90.43;101769.25;10365620;28;20121;-78
2022/01/06 17:02:40;;;;;;;54.05;22.77;;;;;;;0.29;90.93;101775.28;10352530;28;20033;-78
2022/01/06 17:07:40;;;;;;;48.35;21.33;;;;;;;0.28;91.06;101775.16;10370610;28;20437;-78
2022/01/06 17:12:41;;;;;;;45.80;19.25;;;;;;;0.10;90.98;101784.44;10361096;28;20072;-78
2022/01/06 17:17:41;;;;;;;46.58;19.75;;;;;;;0.02;91.28;101782.72;10318364;28;20054;-78
2022/01/06 17:22:43;;;;;;;33.45;16.25;;;;;;;0.17;91.41;101781.75;10334665;28;20076;-78
2022/01/06 17:27:44;;;;;;;43.10;20.65;;;;;;;-0.07;90.79;101775.84;10325649;28;20046;-78
2022/01/06 17:32:47;;;;;;;41.58;19.50;;;;;;;-0.30;90.59;101786.31;10311756;28;20125;-78
2022/01/06 17:37:50;;;;;;;39.05;20.15;;;;;;;-0.33;90.92;101784.31;10315890;28;20046;-78
2022/01/06 17:42:50;;;;;;;34.90;17.75;;;;;;;-0.43;91.20;101796.94;10354408;28;20038;-78
2022/01/06 17:47:51;;;;;;;37.58;18.63;;;;;;;-0.51;91.39;101796.13;10361884;28;20030;-78
2022/01/06 17:52:51;;;;;;;41.95;18.73;;;;;;;-0.43;91.49;101794.38;10338159;28;20393;-78
2022/01/06 17:57:52;;;;;;;64.07;22.10;;;;;;;-0.47;91.36;101793.16;10340162;28;20128;-78
2022/01/06 18:02:56;;;;;;;38.13;15.70;;;;;;;-0.61;91.50;101790.75;10378973;28;20030;-78
2022/01/06 18:13:10;;;;;;;46.55;17.55;;;;;;;-0.61;91.71;101791.66;10372771;28;20042;-78
2022/01/06 18:18:12;;;;;;;41.27;20.10;;;;;;;-0.66;91.69;101791.91;10380865;28;20034;-79
2022/01/06 18:23:15;;;;;;;69.10;22.77;;;;;;;-0.38;92.12;101780.34;10390766;28;20113;-78
2022/01/06 18:28:16;;;;;;;46.53;19.52;;;;;;;-0.02;92.31;101779.81;10381857;28;20066;-77
2022/01/06 18:33:26;;;;;;;37.90;18.15;;;;;;;0.18;92.14;101780.09;10383850;28;20034;-78
2022/01/06 18:38:28;;;;;;;58.58;38.90;;;;;;;0.15;91.80;101770.38;10381547;28;20396;-77
2022/01/06 18:43:33;;;;;;;50.83;25.45;;;;;;;0.24;91.75;101767.84;10371758;28;20037;-77
2022/01/06 18:48:35;;;;;;;46.65;21.88;;;;;;;0.26;91.05;101756.06;10352511;28;20029;-77
2022/01/06 18:53:35;;;;;;;44.40;21.85;;;;;;;0.22;90.74;101751.34;10362319;28;20033;-77
2022/01/06 18:58:36;;;;;;;48.83;18.77;;;;;;;0.06;90.01;101738.53;10368287;28;20045;-76
2022/01/06 19:03:36;;;;;;;74.28;20.90;;;;;;;0.18;90.54;101732.06;10368014;28;20153;-77
2022/01/06 19:08:37;;;;;;;35.25;16.30;;;;;;;0.22;90.17;101726.47;10366720;28;20485;-77
2022/01/06 19:13:37;;;;;;;33.67;14.07;;;;;;;0.14;89.59;101725.72;10349115;28;20540;-76
2022/01/06 19:18:38;;;;;;;32.13;14.07;;;;;;;0.14;89.46;101714.47;10334946;28;20034;-76
2022/01/06 19:23:38;;;;;;;37.85;12.32;;;;;;;0.35;88.84;101709.72;10366002;28;20052;-76
2022/01/06 19:28:39;;;;;;;25.27;12.13;;;;;;;0.24;88.30;101708.63;10341165;28;20034;-75
2022/01/06 19:33:42;;;;;;;23.60;11.15;;;;;;;0.17;88.53;101701.94;10355834;28;20493;-79
2022/01/06 19:38:46;;;;;;;28.30;11.52;;;;;;;0.18;88.31;101692.56;10260593;28;3139967;-78
2022/01/06 19:43:51;;;;;;;24.20;12.50;;;;;;;0.27;88.07;101696.97;10363258;28;20410;-78
2022/01/06 19:48:52;;;;;;;29.95;12.80;;;;;;;0.19;87.44;101684.97;10369346;28;20026;-78
2022/01/06 19:53:55;;;;;;;31.15;11.85;;;;;;;0.14;87.68;101673.28;10372455;28;20061;-78
2022/01/06 19:59:08;;;;;;;28.88;9.10;;;;;;;0.32;87.25;101668.19;10371793;28;20038;-78
2022/01/06 20:04:09;;;;;;;34.50;13.55;;;;;;;0.28;87.56;101656.69;10373437;28;20115;-77
2022/01/06 20:09:11;;;;;;;18.50;7.78;;;;;;;0.33;86.48;101644.25;10369703;28;20025;-77
2022/01/06 20:14:15;;;;;;;26.98;10.15;;;;;;;0.26;87.57;101646.22;10369336;28;20033;-78
2022/01/06 20:19:25;;;;;;;20.13;10.23;;;;;;;0.32;86.87;101634.72;10335269;28;20030;-78
2022/01/06 20:24:30;;;;;;;18.02;8.10;;;;;;;0.43;86.36;101622.19;10370742;28;20500;-78
2022/01/06 20:29:33;;;;;;;25.50;10.57;;;;;;;0.41;86.12;101608.25;10369568;28;20421;-77
2022/01/06 20:34:34;;;;;;;;;;;;;;;0.33;85.97;101603.06;10357962;28;20587;-78
2022/01/06 20:39:37;;;;;;;21.60;10.23;;;;;;;0.21;86.81;101598.50;10381683;28;19962;-77
2022/01/06 20:44:46;;;;;;;20.48;10.68;;;;;;;0.28;86.28;101597.47;10356542;28;20042;-78
2022/01/06 20:55:22;;;;;;;26.13;10.67;;;;;;;0.06;86.86;101581.50;10330271;28;20038;-76
2022/01/06 21:00:25;;;;;;;16.83;8.52;;;;;;;0.03;87.02;101594.06;10328140;28;20906;-76
2022/01/06 21:05:30;;;;;;;22.33;8.32;;;;;;;0.00;86.85;101597.25;10369048;28;20049;-76
2022/01/06 21:10:37;;;;;;;20.80;8.13;;;;;;;0.03;86.61;101579.53;10367406;28;20030;-77
2022/01/06 21:15:42;;;;;;;39.37;12.80;;;;;;;0.29;86.19;101592.44;10368848;28;20037;-77
2022/01/06 21:20:45;;;;;;;20.87;7.73;;;;;;;0.36;85.26;101578.53;10367712;28;20042;-76
2022/01/06 21:25:47;;;;;;;15.68;6.72;;;;;;;0.41;84.86;101569.59;10367429;28;20041;-77
2022/01/06 21:30:52;;;;;;;17.40;8.35;;;;;;;0.48;84.32;101576.25;10370404;28;20061;-77
2022/01/06 21:35:52;;;;;;;15.15;5.00;;;;;;;0.43;84.16;101568.09;10370617;28;20046;-77
2022/01/06 21:40:53;;;;;;;21.70;9.20;;;;;;;0.33;84.53;101569.59;10371962;28;20509;-77
2022/01/06 21:45:54;;;;;;;20.25;7.97;;;;;;;0.55;83.27;101558.09;10370038;28;20042;-77
2022/01/06 21:50:54;;;;;;;23.80;8.27;;;;;;;0.36;83.79;101562.16;10369389;28;20084;-77
2022/01/06 21:55:55;;;;;;;24.05;9.27;;;;;;;0.19;84.11;101558.81;10369242;28;20481;-77
2022/01/06 22:00:55;;;;;;;20.05;7.85;;;;;;;0.19;85.14;101557.91;10369218;28;20358;-77
2022/01/06 22:05:56;;;;;;;23.48;9.30;;;;;;;0.27;84.57;101546.72;10386114;28;20065;-77
2022/01/06 22:10:56;;;;;;;17.20;6.68;;;;;;;0.47;83.80;101538.38;10367246;28;20034;-77
2022/01/06 22:15:57;;;;;;;46.85;9.02;;;;;;;0.55;83.24;101528.84;10354512;28;20545;-77
2022/01/06 22:20:57;;;;;;;39.65;9.63;;;;;;;0.69;82.80;101540.50;10328198;28;20117;-77
2022/01/06 22:25:58;;;;;;;17.17;7.28;;;;;;;0.73;82.85;101537.47;10342717;28;20478;-78
2022/01/06 22:30:59;;;;;;;14.52;7.43;;;;;;;0.71;82.22;101526.09;10371162;28;20132;-76
2022/01/06 22:35:59;;;;;;;16.40;8.05;;;;;;;0.83;82.04;101531.56;10375572;28;20081;-76
2022/01/06 22:41:03;;;;;;;16.48;7.30;;;;;;;0.86;81.46;101519.88;10335906;28;20054;-76
2022/01/06 22:46:03;;;;;;;25.70;9.57;;;;;;;0.90;81.56;101510.78;10349604;28;20038;-76
2022/01/06 22:51:06;;;;;;;12.00;6.75;;;;;;;1.04;80.41;101491.47;10376152;28;20025;-76
2022/01/06 22:56:06;;;;;;;22.30;8.65;;;;;;;1.07;79.95;101494.34;10374157;28;20034;-77
2022/01/06 23:01:07;;;;;;;15.15;7.10;;;;;;;1.02;80.72;101481.03;10376265;28;20531;-77
2022/01/06 23:06:08;;;;;;;15.55;7.32;;;;;;;1.05;80.43;101479.50;10375792;28;20044;-82
2022/01/06 23:11:10;;;;;;;18.20;8.40;;;;;;;1.15;79.94;101457.31;10375663;28;20014;-76
2022/01/06 23:16:11;;;;;;;11.60;7.25;;;;;;;1.20;79.51;101452.59;10375394;28;20393;-76
2022/01/06 23:21:11;;;;;;;16.17;7.18;;;;;;;1.20;80.31;101441.34;10374328;28;20060;-76